createdAt,value
2022-07-29T00:04:09.604Z,23.51
2022-07-29T00:06:36.891Z,23.67
2022-07-29T00:09:03.726Z,23.67
2022-07-29T00:11:30.769Z,23.64
2022-07-29T00:13:58.032Z,23.59
2022-07-29T00:16:24.965Z,23.49
2022-07-29T00:18:52.126Z,23.46
2022-07-29T00:21:18.932Z,23.50
2022-07-29T00:23:45.883Z,23.57
2022-07-29T00:26:12.873Z,23.57
2022-07-29T00:28:39.650Z,23.52
2022-07-29T00:31:06.595Z,23.48
2022-07-29T00:33:33.674Z,23.45
2022-07-29T00:36:00.447Z,23.35
2022-07-29T00:38:27.341Z,23.41
2022-07-29T00:40:54.334Z,23.42
2022-07-29T00:43:21.130Z,23.42
2022-07-29T00:45:47.883Z,23.21
2022-07-29T00:48:14.992Z,23.44
2022-07-29T00:50:42.693Z,23.35
2022-07-29T00:53:21.082Z,23.40
2022-07-29T00:55:47.982Z,23.37
2022-07-29T00:58:15.003Z,23.35
2022-07-29T01:00:43.555Z,23.31
2022-07-29T01:03:12.600Z,23.19
2022-07-29T01:05:49.860Z,23.20
2022-07-29T01:08:19.204Z,23.25
2022-07-29T01:10:47.852Z,23.15
2022-07-29T01:13:15.853Z,23.26
2022-07-29T01:15:49.437Z,23.22
2022-07-29T01:18:29.575Z,23.08
2022-07-29T01:21:25.175Z,23.16
2022-07-29T01:24:17.479Z,23.08
2022-07-29T01:26:58.561Z,22.91
2022-07-29T01:29:38.876Z,22.77
2022-07-29T01:32:28.203Z,22.71
2022-07-29T01:35:03.156Z,22.93
2022-07-29T01:37:48.071Z,22.94
2022-07-29T01:40:35.468Z,22.81
2022-07-29T01:43:11.959Z,22.83
2022-07-29T01:45:42.859Z,22.80
2022-07-29T01:48:44.978Z,22.73
2022-07-29T01:51:37.093Z,22.71
2022-07-29T01:54:36.454Z,22.72
2022-07-29T01:57:05.839Z,22.44
2022-07-29T01:59:36.140Z,22.70
2022-07-29T02:02:03.824Z,22.67
2022-07-29T02:04:34.709Z,22.56
2022-07-29T02:07:06.837Z,22.56
2022-07-29T02:09:37.349Z,22.51
2022-07-29T02:12:06.902Z,22.38
2022-07-29T02:14:55.208Z,22.36
2022-07-29T02:17:28.681Z,22.31
2022-07-29T02:20:00.281Z,22.24
2022-07-29T02:22:31.336Z,22.30
2022-07-29T02:25:02.092Z,22.34
2022-07-29T02:27:34.595Z,22.36
2022-07-29T02:30:03.974Z,22.33
2022-07-29T02:32:32.991Z,22.28
2022-07-29T02:35:02.574Z,22.28
2022-07-29T02:37:31.869Z,22.18
2022-07-29T02:40:00.106Z,22.27
2022-07-29T02:42:28.594Z,22.23
2022-07-29T02:44:56.399Z,22.22
2022-07-29T02:47:26.202Z,22.25
2022-07-29T02:50:14.610Z,21.94
2022-07-29T02:53:10.074Z,22.24
2022-07-29T02:55:36.907Z,22.24
2022-07-29T02:58:16.936Z,22.18
2022-07-29T03:00:48.628Z,22.22
2022-07-29T03:03:18.339Z,22.22
2022-07-29T03:05:45.722Z,22.18
2022-07-29T03:08:13.811Z,21.89
2022-07-29T03:10:43.731Z,22.04
2022-07-29T03:13:16.722Z,22.03
2022-07-29T03:15:45.789Z,21.90
2022-07-29T03:18:13.504Z,21.90
2022-07-29T03:20:41.522Z,21.93
2022-07-29T03:23:09.428Z,21.77
2022-07-29T03:25:36.647Z,21.72
2022-07-29T03:28:03.640Z,21.88
2022-07-29T03:30:31.675Z,21.80
2022-07-29T03:32:59.279Z,21.95
2022-07-29T03:35:26.192Z,22.04
2022-07-29T03:37:52.949Z,22.07
2022-07-29T03:40:27.102Z,22.15
2022-07-29T03:42:55.918Z,22.27
2022-07-29T03:45:24.806Z,22.18
2022-07-29T03:47:57.045Z,22.34
2022-07-29T03:50:26.315Z,22.38
2022-07-29T03:52:53.490Z,22.54
2022-07-29T03:55:20.488Z,22.55
2022-07-29T03:57:49.126Z,22.66
2022-07-29T04:00:19.017Z,22.90
2022-07-29T04:02:49.800Z,22.77
2022-07-29T04:05:19.549Z,23.13
2022-07-29T04:07:47.432Z,23.30
2022-07-29T04:10:16.584Z,23.43
2022-07-29T04:12:44.371Z,23.25
2022-07-29T04:15:11.871Z,23.50
2022-07-29T04:17:38.893Z,23.78
2022-07-29T04:20:06.344Z,23.86
2022-07-29T04:22:33.261Z,23.98
2022-07-29T04:25:03.948Z,24.09
2022-07-29T04:27:31.392Z,24.27
2022-07-29T04:29:58.128Z,24.35
2022-07-29T04:32:29.992Z,24.34
2022-07-29T04:34:56.919Z,24.43
2022-07-29T04:37:23.641Z,24.29
2022-07-29T04:39:50.503Z,24.47
2022-07-29T04:42:17.528Z,24.52
2022-07-29T04:44:51.973Z,24.72
2022-07-29T04:47:19.040Z,24.69
2022-07-29T04:49:45.735Z,24.67
2022-07-29T04:52:12.520Z,24.72
2022-07-29T04:54:39.469Z,24.75
2022-07-29T04:57:06.283Z,24.80
2022-07-29T04:59:33.164Z,24.55
2022-07-29T05:02:00.307Z,24.62
2022-07-29T05:04:27.146Z,24.93
2022-07-29T05:06:54.022Z,25.06
2022-07-29T05:09:20.987Z,25.01
2022-07-29T05:11:47.785Z,25.18
2022-07-29T05:14:15.033Z,25.25
2022-07-29T05:16:43.045Z,25.30
2022-07-29T05:19:14.129Z,25.36
2022-07-29T05:21:41.617Z,25.47
2022-07-29T05:24:09.073Z,25.37
2022-07-29T05:26:35.728Z,25.25
2022-07-29T05:29:02.826Z,25.41
2022-07-29T05:31:29.864Z,25.44
2022-07-29T05:33:56.829Z,25.53
2022-07-29T05:36:23.732Z,25.47
2022-07-29T05:38:51.908Z,25.40
2022-07-29T05:41:19.580Z,25.65
2022-07-29T05:43:51.500Z,25.87
2022-07-29T05:46:18.648Z,25.79
2022-07-29T05:48:45.532Z,26.09
2022-07-29T05:51:12.302Z,26.15
2022-07-29T05:56:43.303Z,26.32
2022-07-29T05:59:18.304Z,26.48
2022-07-29T06:05:17.255Z,25.49
2022-07-29T06:07:50.218Z,25.80
2022-07-29T06:10:19.998Z,25.88
2022-07-29T06:12:51.265Z,25.91
2022-07-29T06:15:20.655Z,26.00
2022-07-29T06:17:59.887Z,26.60
2022-07-29T06:20:31.216Z,27.04
2022-07-29T06:22:59.058Z,26.69
2022-07-29T06:25:26.079Z,26.59
2022-07-29T06:27:53.693Z,27.45
2022-07-29T06:30:20.938Z,27.22
2022-07-29T06:32:48.277Z,27.39
2022-07-29T06:35:41.733Z,26.73
2022-07-29T06:38:03.518Z,27.71
2022-07-29T06:40:55.224Z,27.98
2022-07-29T06:43:50.629Z,28.21
2022-07-29T06:46:21.212Z,28.50
2022-07-29T06:48:51.160Z,28.75
2022-07-29T06:51:22.131Z,28.68
2022-07-29T06:54:02.755Z,29.01
2022-07-29T06:56:38.299Z,28.93
2022-07-29T06:59:06.423Z,29.12
2022-07-29T07:01:33.277Z,29.24
2022-07-29T07:04:00.112Z,29.41
2022-07-29T07:06:27.581Z,29.43
2022-07-29T07:08:54.477Z,29.54
2022-07-29T07:11:21.422Z,29.65
2022-07-29T07:13:48.315Z,29.77
2022-07-29T07:16:15.156Z,29.78
2022-07-29T07:18:42.029Z,29.95
2022-07-29T07:21:09.183Z,30.05
2022-07-29T07:23:36.083Z,30.22
2022-07-29T07:26:04.040Z,30.29
2022-07-29T07:28:30.897Z,30.44
2022-07-29T07:30:58.766Z,30.47
2022-07-29T07:33:25.782Z,30.42
2022-07-29T07:35:52.705Z,30.37
2022-07-29T07:38:19.483Z,30.46
2022-07-29T07:40:47.409Z,30.62
2022-07-29T07:43:14.397Z,30.69
2022-07-29T07:45:41.313Z,30.80
2022-07-29T07:48:11.057Z,30.95
2022-07-29T07:50:38.222Z,30.99
2022-07-29T07:53:05.128Z,31.26
2022-07-29T07:55:53.210Z,31.47
2022-07-29T07:58:18.990Z,31.56
2022-07-29T08:00:46.720Z,31.67
2022-07-29T08:03:17.071Z,31.67
2022-07-29T08:05:44.699Z,31.50
2022-07-29T08:08:13.191Z,31.62
2022-07-29T08:10:57.036Z,31.92
2022-07-29T08:13:39.689Z,31.55
2022-07-29T08:16:15.959Z,31.57
2022-07-29T08:18:44.816Z,31.64
2022-07-29T08:21:15.264Z,31.67
2022-07-29T08:23:59.677Z,31.87
2022-07-29T08:26:28.039Z,32.00
2022-07-29T08:28:55.114Z,32.10
2022-07-29T08:31:22.068Z,32.10
2022-07-29T08:33:49.069Z,32.17
2022-07-29T08:36:15.825Z,32.40
2022-07-29T08:38:42.634Z,32.52
2022-07-29T08:41:09.708Z,32.57
2022-07-29T08:43:38.412Z,32.79
2022-07-29T08:46:05.450Z,32.89
2022-07-29T08:48:33.383Z,32.85
2022-07-29T08:51:01.605Z,32.80
2022-07-29T08:53:29.922Z,32.86
2022-07-29T08:55:58.532Z,32.99
2022-07-29T08:58:26.402Z,32.75
2022-07-29T09:00:56.185Z,32.87
2022-07-29T09:03:31.594Z,32.48
2022-07-29T09:06:02.384Z,32.29
2022-07-29T09:08:29.475Z,32.54
2022-07-29T09:11:00.971Z,32.67
2022-07-29T09:13:42.031Z,32.99
2022-07-29T09:16:09.591Z,33.01
2022-07-29T09:18:43.124Z,32.89
2022-07-29T09:21:34.660Z,32.95
2022-07-29T09:24:04.753Z,32.80
2022-07-29T09:26:33.465Z,32.95
2022-07-29T09:29:00.773Z,33.09
2022-07-29T09:31:35.573Z,33.16
2022-07-29T09:34:16.121Z,33.27
2022-07-29T09:37:05.899Z,33.57
2022-07-29T09:39:46.854Z,32.87
2022-07-29T09:42:16.774Z,32.73
2022-07-29T09:44:49.548Z,32.74
2022-07-29T09:47:19.124Z,33.61
2022-07-29T09:49:59.305Z,33.04
2022-07-29T10:08:50.635Z,32.75
2022-07-29T10:11:19.011Z,32.80
2022-07-29T10:44:07.773Z,33.88
2022-07-29T10:56:28.427Z,34.24
2022-07-29T10:59:23.608Z,34.57
2022-07-29T11:01:52.704Z,33.48
2022-07-29T11:04:47.155Z,33.97
2022-07-29T11:07:18.837Z,33.42
2022-07-29T11:10:27.020Z,33.63
2022-07-29T11:13:43.016Z,34.05
2022-07-29T11:16:10.190Z,34.33
2022-07-29T11:19:13.641Z,34.36
2022-07-29T11:21:55.512Z,34.26
2022-07-29T11:24:50.193Z,33.98
2022-07-29T11:27:23.356Z,33.64
2022-07-29T11:30:01.611Z,33.91
2022-07-29T11:32:39.837Z,33.93
2022-07-29T11:38:31.686Z,34.34
2022-07-29T11:41:21.107Z,34.42
2022-07-29T11:43:58.434Z,34.64
2022-07-29T11:46:45.036Z,34.73
2022-07-29T11:49:15.308Z,34.89
2022-07-29T11:51:57.845Z,35.05
2022-07-29T11:54:27.950Z,35.14
2022-07-29T11:56:55.913Z,34.82
2022-07-29T11:59:23.179Z,34.29
2022-07-29T12:02:36.572Z,34.04
2022-07-29T12:04:56.441Z,34.49
2022-07-29T12:10:36.551Z,33.41
2022-07-29T12:13:05.375Z,33.78
2022-07-29T12:15:45.731Z,33.93
2022-07-29T12:21:56.529Z,32.92
2022-07-29T13:02:37.828Z,34.71
2022-07-29T13:05:07.194Z,34.64
2022-07-29T13:11:57.796Z,34.52
2022-07-29T13:14:45.641Z,34.75
2022-07-29T13:17:13.597Z,34.68
2022-07-29T13:19:45.651Z,34.68
2022-07-29T13:22:17.071Z,34.85
2022-07-29T13:24:50.548Z,34.91
2022-07-29T13:27:28.750Z,34.90
2022-07-29T13:29:59.743Z,34.39
2022-07-29T13:32:28.548Z,34.20
2022-07-29T13:35:01.788Z,34.33
2022-07-29T13:37:35.288Z,34.45
2022-07-29T13:40:04.474Z,34.36
2022-07-29T13:42:32.967Z,34.19
2022-07-29T13:45:01.477Z,34.40
2022-07-29T13:47:32.444Z,34.39
2022-07-29T13:50:02.193Z,34.59
2022-07-29T13:52:30.047Z,34.28
2022-07-29T13:54:57.198Z,34.26
2022-07-29T13:57:24.201Z,34.42
2022-07-29T13:59:54.282Z,34.34
2022-07-29T14:02:25.303Z,34.38
2022-07-29T14:04:52.884Z,34.30
2022-07-29T14:07:19.746Z,34.18
2022-07-29T14:09:46.575Z,34.13
2022-07-29T14:12:14.878Z,34.06
2022-07-29T14:14:42.478Z,34.05
2022-07-29T14:17:10.363Z,34.03
2022-07-29T14:19:38.983Z,33.95
2022-07-29T14:22:07.304Z,33.97
2022-07-29T14:24:37.216Z,34.00
2022-07-29T14:27:06.220Z,34.04
2022-07-29T14:29:35.275Z,34.07
2022-07-29T14:32:04.589Z,34.04
2022-07-29T14:34:31.750Z,34.00
2022-07-29T14:36:58.516Z,33.98
2022-07-29T14:39:25.345Z,34.07
2022-07-29T14:41:59.449Z,34.20
2022-07-29T14:44:32.180Z,34.23
2022-07-29T14:47:00.866Z,34.34
2022-07-29T14:49:28.235Z,34.38
2022-07-29T14:51:55.272Z,34.48
2022-07-29T14:54:22.889Z,34.47
2022-07-29T14:56:51.928Z,34.32
2022-07-29T14:59:18.725Z,34.41
2022-07-29T15:01:45.797Z,34.30
2022-07-29T15:04:12.616Z,34.31
2022-07-29T15:06:39.824Z,34.55
2022-07-29T15:09:06.855Z,34.60
2022-07-29T15:11:38.337Z,34.42
2022-07-29T15:14:06.714Z,34.53
2022-07-29T15:16:36.291Z,34.42
2022-07-29T15:19:03.335Z,34.57
2022-07-29T15:21:30.173Z,34.57
2022-07-29T15:23:57.157Z,34.72
2022-07-29T15:26:23.928Z,34.85
2022-07-29T15:28:50.646Z,34.87
2022-07-29T15:31:18.221Z,34.85
2022-07-29T15:33:45.869Z,34.71
2022-07-29T15:36:25.485Z,34.78
2022-07-29T15:39:00.620Z,34.68
2022-07-29T15:41:27.507Z,34.58
2022-07-29T15:43:54.354Z,34.59
2022-07-29T15:46:40.174Z,34.31
2022-07-29T15:49:08.091Z,33.90
2022-07-29T15:51:35.496Z,33.58
2022-07-29T15:54:07.672Z,33.23
2022-07-29T15:56:34.774Z,33.04
2022-07-29T15:59:02.113Z,32.75
2022-07-29T16:01:28.991Z,33.00
2022-07-29T16:03:58.599Z,32.87
2022-07-29T16:06:25.942Z,32.90
2022-07-29T16:08:56.284Z,32.53
2022-07-29T16:11:23.058Z,31.88
2022-07-29T16:13:50.733Z,30.18
2022-07-29T16:16:18.642Z,29.66
2022-07-29T16:18:46.365Z,28.54
2022-07-29T16:21:13.804Z,28.10
2022-07-29T16:23:40.838Z,27.65
2022-07-29T16:26:07.937Z,27.12
2022-07-29T16:28:35.015Z,26.09
2022-07-29T16:31:02.096Z,25.28
2022-07-29T16:33:28.975Z,24.88
2022-07-29T16:36:18.572Z,24.57
2022-07-29T16:38:47.108Z,24.50
2022-07-29T16:41:14.435Z,24.28
2022-07-29T16:43:41.525Z,24.24
2022-07-29T16:46:09.353Z,24.04
2022-07-29T16:48:40.920Z,23.99
2022-07-29T16:51:08.686Z,24.17
2022-07-29T16:53:35.779Z,24.32
2022-07-29T16:56:02.929Z,24.38
2022-07-29T16:58:29.971Z,24.50
2022-07-29T17:00:56.805Z,24.46
2022-07-29T17:03:23.933Z,24.67
2022-07-29T17:05:50.965Z,24.73
2022-07-29T17:08:22.087Z,24.77
2022-07-29T17:10:49.295Z,24.87
2022-07-29T17:13:16.512Z,24.88
2022-07-29T17:15:44.146Z,25.09
2022-07-29T17:18:12.322Z,24.82
2022-07-29T17:20:42.029Z,24.75
2022-07-29T17:23:09.486Z,24.95
2022-07-29T17:25:36.555Z,24.83
2022-07-29T17:28:03.722Z,24.83
2022-07-29T17:30:30.536Z,24.88
2022-07-29T17:32:57.320Z,24.83
2022-07-29T17:35:42.542Z,24.51
2022-07-29T17:38:09.335Z,24.75
2022-07-29T17:40:36.577Z,24.67
2022-07-29T17:43:04.777Z,24.49
2022-07-29T17:45:49.604Z,24.60
2022-07-29T17:48:19.015Z,24.38
2022-07-29T17:50:47.210Z,24.59
2022-07-29T17:53:16.355Z,24.49
2022-07-29T17:55:45.687Z,24.48
2022-07-29T17:58:12.930Z,24.45
2022-07-29T18:00:39.751Z,24.46
2022-07-29T18:03:07.184Z,24.45
2022-07-29T18:05:35.021Z,24.34
2022-07-29T18:08:02.027Z,24.44
2022-07-29T18:10:28.990Z,24.42
2022-07-29T18:12:56.403Z,24.41
2022-07-29T18:15:23.334Z,24.40
2022-07-29T18:17:57.226Z,24.28
2022-07-29T18:20:26.155Z,24.38
2022-07-29T18:22:54.489Z,23.94
2022-07-29T18:25:22.168Z,24.41
2022-07-29T18:27:50.947Z,24.35
2022-07-29T18:30:20.942Z,24.43
2022-07-29T18:33:18.199Z,24.38
2022-07-29T18:35:36.685Z,24.01
2022-07-29T18:38:03.880Z,24.02
2022-07-29T18:40:30.832Z,24.43
2022-07-29T18:42:58.014Z,24.02
2022-07-29T18:45:28.302Z,24.20
2022-07-29T18:47:56.966Z,24.27
2022-07-29T18:50:28.979Z,24.53
2022-07-29T18:53:01.197Z,24.45
2022-07-29T18:55:30.620Z,24.67
2022-07-29T18:57:57.662Z,24.80
2022-07-29T19:00:26.217Z,24.85
2022-07-29T19:02:54.101Z,24.65
2022-07-29T19:05:21.774Z,24.59
2022-07-29T19:07:49.333Z,24.24
2022-07-29T19:10:19.166Z,24.27
2022-07-29T19:12:46.033Z,24.23
2022-07-29T19:15:13.073Z,24.11
2022-07-29T19:17:48.744Z,24.74
2022-07-29T19:20:18.610Z,23.87
2022-07-29T19:22:47.820Z,24.39
2022-07-29T19:25:15.158Z,24.03
2022-07-29T19:27:42.268Z,24.14
2022-07-29T19:30:09.624Z,24.46
2022-07-29T19:32:37.242Z,24.68
2022-07-29T19:35:23.936Z,24.14
2022-07-29T19:37:52.127Z,24.59
2022-07-29T19:40:19.394Z,24.58
2022-07-29T19:42:48.462Z,24.22
2022-07-29T19:45:15.617Z,24.07
2022-07-29T19:47:42.575Z,24.18
2022-07-29T19:50:10.241Z,23.92
2022-07-29T19:52:37.656Z,23.93
2022-07-29T19:55:07.808Z,24.28
2022-07-29T19:57:40.697Z,24.20
2022-07-29T20:00:11.342Z,24.21
2022-07-29T20:02:40.131Z,23.78
2022-07-29T20:05:08.935Z,24.16
2022-07-29T20:07:37.052Z,24.14
2022-07-29T20:10:04.985Z,23.89
2022-07-29T20:12:32.311Z,23.99
2022-07-29T20:15:00.042Z,23.76
2022-07-29T20:17:27.174Z,23.84
2022-07-29T20:19:54.192Z,23.85
2022-07-29T20:22:22.309Z,23.81
2022-07-29T20:24:49.687Z,23.65
2022-07-29T20:27:16.578Z,23.59
2022-07-29T20:29:43.866Z,23.58
2022-07-29T20:32:12.194Z,23.38
2022-07-29T20:34:41.278Z,23.22
2022-07-29T20:37:13.522Z,23.41
2022-07-29T20:39:48.771Z,23.55
2022-07-29T20:42:16.452Z,23.28
2022-07-29T20:44:43.334Z,23.60
2022-07-29T20:47:10.278Z,23.10
2022-07-29T20:49:37.473Z,23.28
2022-07-29T20:52:04.399Z,23.43
2022-07-29T20:54:31.303Z,23.29
2022-07-29T20:56:58.664Z,23.25
2022-07-29T20:59:25.674Z,23.70
2022-07-29T21:01:52.536Z,23.67
2022-07-29T21:04:19.757Z,23.59
2022-07-29T21:06:46.680Z,23.40
2022-07-29T21:09:13.650Z,23.53
2022-07-29T21:11:44.601Z,23.33
2022-07-29T21:14:31.569Z,23.47
2022-07-29T21:16:58.854Z,22.77
2022-07-29T21:19:26.345Z,22.98
2022-07-29T21:21:53.249Z,22.96
2022-07-29T21:24:20.529Z,22.72
2022-07-29T21:27:04.765Z,22.62
2022-07-29T21:29:34.741Z,23.04
2022-07-29T21:32:03.972Z,23.14
2022-07-29T21:34:33.832Z,22.62
2022-07-29T21:37:01.129Z,22.64
2022-07-29T21:39:28.101Z,22.90
2022-07-29T21:41:55.019Z,22.88
2022-07-29T21:44:22.109Z,22.85
2022-07-29T21:46:49.428Z,23.00
2022-07-29T21:49:16.345Z,22.96
2022-07-29T21:51:43.986Z,22.42
2022-07-29T21:54:11.095Z,22.70
2022-07-29T21:56:37.970Z,22.45
2022-07-29T21:59:05.398Z,22.90
2022-07-29T22:01:39.464Z,22.90
2022-07-29T22:04:06.877Z,22.84
2022-07-29T22:06:34.641Z,22.84
2022-07-29T22:09:01.420Z,22.73
2022-07-29T22:11:28.525Z,22.81
2022-07-29T22:13:55.392Z,22.52
2022-07-29T22:16:22.261Z,22.76
2022-07-29T22:18:49.418Z,22.74
2022-07-29T22:21:16.611Z,22.73
2022-07-29T22:23:43.511Z,22.44
2022-07-29T22:26:10.614Z,22.51
2022-07-29T22:28:37.468Z,22.67
2022-07-29T22:31:04.984Z,22.53
2022-07-29T22:33:32.002Z,22.63
2022-07-29T22:35:58.835Z,22.58
2022-07-29T22:38:25.629Z,22.46
2022-07-29T22:40:52.604Z,22.57
2022-07-29T22:43:22.232Z,22.47
2022-07-29T22:45:49.093Z,22.57
2022-07-29T22:48:16.224Z,22.47
2022-07-29T22:50:43.058Z,22.41
2022-07-29T22:53:10.093Z,22.44
2022-07-29T22:55:37.069Z,22.56
2022-07-29T22:58:03.974Z,22.54
2022-07-29T23:00:30.842Z,22.45
2022-07-29T23:02:58.065Z,22.47
2022-07-29T23:05:24.824Z,22.48
2022-07-29T23:07:51.719Z,22.52
2022-07-29T23:10:19.017Z,22.47
2022-07-29T23:12:45.772Z,22.33
2022-07-29T23:15:12.947Z,22.50
2022-07-29T23:17:40.693Z,22.33
2022-07-29T23:20:09.779Z,22.33
2022-07-29T23:22:36.852Z,22.53
2022-07-29T23:25:05.027Z,22.49
2022-07-29T23:27:32.216Z,22.33
2022-07-29T23:29:59.082Z,22.33
2022-07-29T23:32:26.076Z,22.51
2022-07-29T23:34:52.931Z,22.51
2022-07-29T23:37:19.942Z,22.52
2022-07-29T23:39:46.874Z,22.55
2022-07-29T23:42:17.146Z,22.50
2022-07-29T23:44:44.147Z,22.48
2022-07-29T23:47:11.262Z,22.38
2022-07-29T23:49:38.080Z,21.88
2022-07-29T23:52:05.654Z,22.42
2022-07-29T23:54:42.912Z,22.45
2022-07-29T23:57:09.668Z,22.52
2022-07-29T23:59:36.699Z,22.50
